Time;durP1;ratioP1;P1;durP2;ratioP2;P2;SDS_P1;SDS_P2;PMS_P1;PMS_P2;Temp;Humidity;BMP_temperature;BMP_pressure;BME280_temperature;BME280_humidity;BME280_pressure;Samples;Min_cycle;Max_cycle;Signal;HPM_P1;HPM_P2
2023/01/29 00:00:22;;;;;;;14.10;9.93;;;;;;;1.38;100.00;94960.56;5053946;28;20345;-82
2023/01/29 00:02:51;;;;;;;15.15;10.98;;;;;;;1.24;100.00;94964.66;5053955;28;20203;-82
2023/01/29 00:05:18;;;;;;;16.30;11.35;;;;;;;1.27;100.00;94960.25;5054216;28;20195;-82
2023/01/29 00:07:44;;;;;;;16.75;11.80;;;;;;;1.30;100.00;94962.69;5054008;28;20195;-82
2023/01/29 00:10:12;;;;;;;18.42;11.00;;;;;;;1.36;100.00;94967.56;5002628;28;20211;-82
2023/01/29 00:12:38;;;;;;;14.93;11.52;;;;;;;1.36;100.00;94967.56;5053993;28;20643;-81
2023/01/29 00:15:06;;;;;;;16.80;12.05;;;;;;;1.38;100.00;94973.50;5053771;28;20218;-82
2023/01/29 00:17:33;;;;;;;15.80;10.60;;;;;;;1.40;100.00;94976.84;5018769;28;20201;-82
2023/01/29 00:20:01;;;;;;;17.75;11.55;;;;;;;1.38;100.00;94976.91;5053677;28;20198;-81
2023/01/29 00:22:30;;;;;;;16.92;10.23;;;;;;;1.42;100.00;94975.88;5053737;28;20204;-82
2023/01/29 00:24:57;;;;;;;14.15;10.40;;;;;;;1.37;100.00;94984.75;5053931;28;20231;-81
2023/01/29 00:27:24;;;;;;;15.75;10.80;;;;;;;1.39;100.00;94977.75;5053978;28;20316;-81
2023/01/29 00:30:08;;;;;;;14.47;9.90;;;;;;;1.49;100.00;94986.78;5053957;28;20731;-82
2023/01/29 00:32:35;;;;;;;16.60;11.15;;;;;;;1.42;100.00;94990.53;5053487;28;20509;-82
2023/01/29 00:35:03;;;;;;;12.93;9.95;;;;;;;1.37;100.00;94995.94;5053047;28;20662;-82
2023/01/29 00:37:30;;;;;;;17.03;11.13;;;;;;;1.43;100.00;94989.63;5053960;28;20617;-81
2023/01/29 00:39:57;;;;;;;17.08;10.30;;;;;;;1.41;100.00;94997.47;5018023;28;20422;-81
2023/01/29 00:45:10;;;;;;;21.13;11.15;;;;;;;1.26;100.00;94979.25;5053059;28;20204;-82
2023/01/29 00:47:37;;;;;;;17.15;9.52;;;;;;;1.32;100.00;94991.91;5053357;28;20204;-82
2023/01/29 00:50:08;;;;;;;17.27;9.95;;;;;;;1.23;100.00;94993.19;5017744;28;20204;-82
2023/01/29 00:52:36;;;;;;;16.17;10.20;;;;;;;1.20;100.00;94990.72;5053100;28;20198;-82
2023/01/29 00:55:05;;;;;;;14.20;10.45;;;;;;;1.22;100.00;94984.59;5018309;28;20290;-81
2023/01/29 00:57:34;;;;;;;14.18;10.52;;;;;;;1.23;100.00;94988.00;5053120;28;20224;-82
2023/01/29 01:00:00;;;;;;;13.85;9.40;;;;;;;1.26;100.00;94992.19;5053096;28;20207;-82
2023/01/29 01:05:17;;;;;;;12.93;8.98;;;;;;;1.26;100.00;94974.09;5052515;28;20202;-82
2023/01/29 01:07:45;;;;;;;12.32;9.30;;;;;;;1.23;100.00;94982.84;5052936;28;20223;-82
2023/01/29 01:10:23;;;;;;;14.60;10.23;;;;;;;1.27;100.00;94988.69;5033779;28;20215;-82
2023/01/29 01:12:53;;;;;;;14.40;10.32;;;;;;;1.22;100.00;94992.34;5052932;28;20198;-82
2023/01/29 01:15:20;;;;;;;15.48;10.95;;;;;;;1.19;100.00;94986.47;5018377;28;20614;-82
2023/01/29 01:17:48;;;;;;;12.60;9.13;;;;;;;1.14;100.00;94978.06;5052625;28;20202;-82
2023/01/29 01:20:16;;;;;;;11.40;9.13;;;;;;;1.18;100.00;94984.81;5052676;28;20276;-82
2023/01/29 01:22:43;;;;;;;15.27;10.20;;;;;;;1.20;100.00;94988.16;5052653;28;20210;-82
2023/01/29 01:25:10;;;;;;;15.65;10.02;;;;;;;1.15;100.00;94974.59;5052758;28;20601;-82
2023/01/29 01:27:39;;;;;;;16.25;10.13;;;;;;;1.09;100.00;94978.28;5052519;28;20298;-82
2023/01/29 01:30:10;;;;;;;15.02;9.60;;;;;;;1.10;100.00;94979.97;5018475;28;20267;-82
2023/01/29 01:32:37;;;;;;;14.15;10.30;;;;;;;1.13;100.00;94974.66;4990665;28;20705;-82
2023/01/29 01:35:05;;;;;;;14.68;10.45;;;;;;;1.13;100.00;94982.41;4990698;28;20224;-82
2023/01/29 01:37:36;;;;;;;17.95;11.30;;;;;;;1.20;100.00;94973.47;4958272;28;20296;-82
2023/01/29 01:40:04;;;;;;;12.85;10.40;;;;;;;1.22;100.00;94982.00;4990958;28;20344;-82
2023/01/29 01:42:31;;;;;;;18.17;9.63;;;;;;;1.16;100.00;94979.72;4990482;28;20239;-82
2023/01/29 01:45:03;;;;;;;15.52;10.68;;;;;;;1.19;100.00;94974.38;4990652;28;20704;-82
2023/01/29 01:47:37;;;;;;;15.68;11.32;;;;;;;1.27;100.00;94978.34;4990622;28;20200;-82
2023/01/29 01:50:09;;;;;;;15.40;11.00;;;;;;;1.21;100.00;94990.66;4974230;28;20311;-81
2023/01/29 01:52:43;;;;;;;15.52;10.57;;;;;;;1.19;100.00;94992.47;4990468;28;20209;-82
2023/01/29 01:55:14;;;;;;;13.02;10.20;;;;;;;1.19;100.00;94997.66;4957889;28;20319;-82
2023/01/29 01:57:45;;;;;;;17.88;10.75;;;;;;;1.19;100.00;94987.31;4990557;28;20752;-82
2023/01/29 02:00:17;;;;;;;13.60;10.85;;;;;;;1.24;100.00;94994.84;4990462;28;20267;-82
2023/01/29 02:11:08;;;;;;;17.83;11.20;;;;;;;1.24;100.00;94995.69;5023389;28;20214;-82
2023/01/29 02:13:36;;;;;;;12.15;9.57;;;;;;;1.18;100.00;94993.41;5000660;28;20201;-82
2023/01/29 02:16:02;;;;;;;18.20;11.80;;;;;;;1.25;100.00;94993.94;5051554;28;20234;-82
2023/01/29 02:18:36;;;;;;;16.48;10.65;;;;;;;1.20;100.00;95001.06;5055958;28;20198;-82
2023/01/29 02:21:23;;;;;;;11.80;8.52;;;;;;;1.18;100.00;95000.31;5055892;28;20292;-82
2023/01/29 02:24:35;;;;;;;17.10;10.20;;;;;;;1.17;100.00;94994.31;5056259;28;20194;-81
2023/01/29 02:27:09;;;;;;;15.25;10.30;;;;;;;1.11;100.00;94988.56;5035778;28;20441;-81
2023/01/29 02:29:51;;;;;;;17.60;9.18;;;;;;;1.06;100.00;95001.69;5035738;28;20208;-82
2023/01/29 02:32:26;;;;;;;14.45;9.73;;;;;;;1.10;100.00;95005.81;5036177;28;20572;-82
2023/01/29 02:37:55;;;;;;;12.50;9.30;;;;;;;1.08;100.00;95011.97;5035539;28;20276;-82
2023/01/29 02:40:30;;;;;;;12.90;8.95;;;;;;;1.11;100.00;95009.22;5035581;28;20205;-82
2023/01/29 02:43:06;;;;;;;11.30;8.52;;;;;;;1.14;100.00;95019.41;5035532;28;20242;-82
2023/01/29 02:45:44;;;;;;;13.07;10.48;;;;;;;1.12;100.00;95018.66;5035836;28;20273;-82
2023/01/29 02:48:19;;;;;;;12.05;8.80;;;;;;;1.13;100.00;95021.16;5035838;28;20199;-82
2023/01/29 02:50:54;;;;;;;13.93;10.23;;;;;;;1.16;100.00;95026.22;5035680;28;20207;-82
2023/01/29 02:53:26;;;;;;;15.98;10.35;;;;;;;1.15;100.00;95031.44;5035619;28;20324;-82
2023/01/29 02:55:58;;;;;;;15.30;10.75;;;;;;;1.15;100.00;95021.94;5035340;28;20200;-82
2023/01/29 02:58:31;;;;;;;15.73;10.35;;;;;;;1.28;100.00;95022.22;5035472;28;20261;-81
2023/01/29 03:01:05;;;;;;;21.55;10.13;;;;;;;1.31;100.00;95016.06;5035266;28;20231;-82
2023/01/29 03:03:36;;;;;;;15.40;10.48;;;;;;;1.26;100.00;95028.38;5035568;28;20201;-83
2023/01/29 03:06:07;;;;;;;13.05;10.07;;;;;;;1.26;100.00;95028.38;5034871;28;20689;-82
2023/01/29 03:08:44;;;;;;;13.90;9.82;;;;;;;1.26;100.00;95026.63;5000219;28;20194;-82
2023/01/29 03:11:13;;;;;;;14.18;8.63;;;;;;;1.15;100.00;95021.94;5034998;28;20209;-82
2023/01/29 03:13:47;;;;;;;14.38;8.45;;;;;;;1.21;100.00;95032.00;5000111;28;20196;-82
2023/01/29 03:16:21;;;;;;;13.63;8.73;;;;;;;1.24;100.00;95025.88;5035330;28;20639;-82
2023/01/29 03:18:53;;;;;;;11.70;7.22;;;;;;;1.26;100.00;95026.63;5035540;28;20211;-82
2023/01/29 03:32:37;;;;;;;15.18;9.07;;;;;;;1.44;100.00;95035.25;5054788;28;20221;-83
2023/01/29 03:35:07;;;;;;;13.15;10.02;;;;;;;1.41;100.00;95027.63;5055927;28;20210;-82
2023/01/29 03:37:39;;;;;;;10.23;7.53;;;;;;;1.42;100.00;95035.31;5054503;28;20226;-82
2023/01/29 03:40:09;;;;;;;11.77;8.70;;;;;;;1.45;100.00;95034.38;5054487;28;20213;-82
2023/01/29 03:42:50;;;;;;;8.38;6.63;;;;;;;1.39;100.00;95037.22;5054650;28;20209;-82
2023/01/29 03:45:25;;;;;;;10.90;6.97;;;;;;;1.44;100.00;95040.41;5054631;28;20289;-82
2023/01/29 03:48:03;;;;;;;10.80;7.63;;;;;;;1.37;100.00;95033.88;5054341;28;20264;-82
2023/01/29 03:50:38;;;;;;;14.98;8.00;;;;;;;1.37;100.00;95037.28;5019116;28;20206;-82
2023/01/29 03:53:13;;;;;;;12.10;6.60;;;;;;;1.24;100.00;95039.63;5054145;28;20673;-82
2023/01/29 03:55:43;;;;;;;8.65;7.15;;;;;;;1.15;100.00;95040.03;5054315;28;20629;-82
2023/01/29 03:58:20;;;;;;;9.75;8.75;;;;;;;1.16;100.00;95039.16;5054282;28;20530;-82
2023/01/29 04:00:54;;;;;;;7.30;6.43;;;;;;;1.16;100.00;95044.31;5019081;28;20293;-82
2023/01/29 04:03:27;;;;;;;12.93;8.57;;;;;;;1.11;100.00;95038.50;5053830;28;20724;-82
2023/01/29 04:06:04;;;;;;;7.95;6.32;;;;;;;1.15;100.00;95041.78;5053954;28;20666;-82
2023/01/29 04:08:35;;;;;;;10.27;7.20;;;;;;;1.17;100.00;95040.81;5054113;28;20202;-82
2023/01/29 04:11:10;;;;;;;8.33;6.73;;;;;;;1.17;100.00;95046.00;5054149;28;20213;-82
2023/01/29 04:13:38;;;;;;;9.18;6.70;;;;;;;1.24;100.00;95041.38;5054034;28;20447;-82
2023/01/29 04:16:08;;;;;;;8.70;7.25;;;;;;;1.21;100.00;95042.34;5053970;28;20198;-82
2023/01/29 04:18:37;;;;;;;10.23;7.30;;;;;;;1.21;100.00;95047.53;5053838;28;20202;-83
2023/01/29 04:21:07;;;;;;;8.43;6.90;;;;;;;1.23;100.00;95050.88;5053668;28;20264;-82
2023/01/29 04:23:33;;;;;;;7.35;6.65;;;;;;;1.32;100.00;95054.75;5053699;28;20213;-83
2023/01/29 04:26:31;;;;;;;7.35;6.60;;;;;;;1.30;100.00;95056.59;5015676;28;20240;-83
2023/01/29 04:29:13;;;;;;;8.13;7.00;;;;;;;1.22;100.00;95054.38;5033610;28;20613;-85
2023/01/29 04:31:49;;;;;;;11.90;8.38;;;;;;;1.28;100.00;95057.56;5034258;28;20791;-83
2023/01/29 04:34:25;;;;;;;7.60;6.53;;;;;;;1.28;100.00;95052.41;5039683;28;20609;-86
2023/01/29 04:37:02;;;;;;;9.60;7.13;;;;;;;1.34;100.00;95054.69;5040814;28;20226;-83
2023/01/29 04:39:35;;;;;;;8.35;6.45;;;;;;;1.27;100.00;95053.31;5041098;28;20470;-83
2023/01/29 04:42:07;;;;;;;8.98;6.40;;;;;;;1.19;100.00;95056.25;5040929;28;20250;-83
2023/01/29 04:44:40;;;;;;;6.03;5.43;;;;;;;1.09;100.00;95058.41;5041513;28;20195;-83
2023/01/29 04:47:18;;;;;;;11.30;6.75;;;;;;;1.10;100.00;95056.66;5041037;28;20192;-82
2023/01/29 04:49:52;;;;;;;9.77;6.55;;;;;;;1.18;100.00;95057.16;5039216;28;20188;-83
2023/01/29 04:52:29;;;;;;;7.97;6.47;;;;;;;1.16;100.00;95057.22;5039825;28;20203;-81
2023/01/29 04:55:04;;;;;;;9.35;5.93;;;;;;;1.17;100.00;95063.25;5038700;28;20194;-82
2023/01/29 04:57:35;;;;;;;7.15;5.97;;;;;;;1.13;100.00;95053.94;5036696;28;20219;-82
2023/01/29 05:00:09;;;;;;;7.57;5.63;;;;;;;1.17;100.00;95063.25;5038259;28;20188;-83
2023/01/29 05:02:40;;;;;;;6.75;6.05;;;;;;;1.19;100.00;95070.00;5039921;28;20188;-83
2023/01/29 05:05:11;;;;;;;5.85;5.25;;;;;;;1.26;100.00;95070.56;5039974;28;20234;-83
2023/01/29 05:07:40;;;;;;;7.72;5.40;;;;;;;1.20;100.00;95069.09;5039709;28;20199;-83
2023/01/29 05:10:09;;;;;;;6.72;5.20;;;;;;;1.09;100.00;95057.56;5040161;28;20619;-82
2023/01/29 05:12:37;;;;;;;6.72;5.80;;;;;;;1.23;100.00;95074.13;5040374;28;20195;-84
2023/01/29 05:15:08;;;;;;;7.60;5.95;;;;;;;1.28;100.00;95073.06;5040993;28;20203;-83
2023/01/29 05:17:35;;;;;;;6.47;5.50;;;;;;;1.27;100.00;95072.25;5020807;28;20690;-82
2023/01/29 05:20:02;;;;;;;10.88;7.25;;;;;;;1.27;100.00;95067.06;5039382;28;20677;-82
2023/01/29 05:22:31;;;;;;;9.90;7.18;;;;;;;1.23;100.00;95073.28;5038110;28;20182;-81
2023/01/29 05:24:58;;;;;;;16.80;9.98;;;;;;;1.29;100.00;95077.34;5043426;28;20234;-82
2023/01/29 05:33:38;;;;;;;11.05;8.00;;;;;;;1.42;100.00;95091.38;5054548;28;20704;-84
2023/01/29 05:36:05;;;;;;;17.45;11.00;;;;;;;1.42;100.00;95092.19;5056374;28;20206;-80
2023/01/29 05:38:33;;;;;;;16.17;9.85;;;;;;;1.38;100.00;95088.09;5018916;28;20241;-81
2023/01/29 05:41:00;;;;;;;14.10;9.30;;;;;;;1.37;100.00;95088.16;5054635;28;20192;-81
2023/01/29 05:43:27;;;;;;;12.20;8.60;;;;;;;1.31;100.00;95094.44;5057735;28;20260;-81
2023/01/29 05:45:55;;;;;;;15.43;9.77;;;;;;;1.21;100.00;95096.63;5057465;28;20696;-82
2023/01/29 05:48:22;;;;;;;13.65;8.93;;;;;;;1.14;100.00;95104.69;5056935;28;20205;-85
2023/01/29 05:50:49;;;;;;;8.80;7.80;;;;;;;1.15;100.00;95089.13;5055448;28;20198;-84
2023/01/29 05:53:15;;;;;;;10.25;7.32;;;;;;;1.19;100.00;95095.03;5056349;28;20213;-83
2023/01/29 05:55:45;;;;;;;16.25;6.60;;;;;;;1.13;100.00;95101.28;5060917;28;20561;-82
2023/01/29 05:58:12;;;;;;;11.60;8.85;;;;;;;1.20;100.00;95104.44;5062945;28;20222;-82
2023/01/29 06:00:39;;;;;;;10.55;7.65;;;;;;;1.27;100.00;95105.00;5064650;28;20597;-82
2023/01/29 06:03:07;;;;;;;11.65;9.10;;;;;;;1.31;100.00;95102.19;5065176;28;20210;-83
2023/01/29 06:05:33;;;;;;;10.05;8.32;;;;;;;1.25;100.00;95107.66;5064793;28;20639;-83
2023/01/29 06:08:00;;;;;;;11.60;7.65;;;;;;;1.28;100.00;95114.44;5063480;28;20195;-81
2023/01/29 06:10:27;;;;;;;9.57;8.38;;;;;;;1.27;100.00;95115.34;5061304;28;20199;-81
2023/01/29 06:12:55;;;;;;;12.60;8.20;;;;;;;1.24;100.00;95122.34;5063057;28;20206;-81
2023/01/29 06:15:23;;;;;;;15.18;9.65;;;;;;;1.19;100.00;95131.19;5061661;28;20197;-81
2023/01/29 06:17:50;;;;;;;102.65;43.90;;;;;;;3.11;100.00;95125.31;5064075;28;20252;-87
2023/01/29 06:20:17;;;;;;;58.00;28.00;;;;;;;5.54;100.00;95127.94;5062239;28;20206;-82
2023/01/29 06:22:44;;;;;;;18.97;14.27;;;;;;;5.73;100.00;95132.00;5064292;28;20445;-80
2023/01/29 06:25:10;;;;;;;10.57;8.57;;;;;;;4.91;92.61;95154.25;5064115;28;20503;-81
2023/01/29 06:27:37;;;;;;;13.33;9.73;;;;;;;4.39;90.97;95145.22;5063967;28;20454;-80
2023/01/29 06:30:07;;;;;;;27.33;15.20;;;;;;;3.93;92.93;95158.97;5061722;28;20445;-80
2023/01/29 06:32:34;;;;;;;24.90;16.63;;;;;;;3.40;93.62;95162.69;5061562;28;20445;-79
2023/01/29 06:35:00;;;;;;;11.50;9.63;;;;;;;2.93;95.26;95162.56;5061457;28;20445;-79
2023/01/29 06:37:27;;;;;;;13.90;9.67;;;;;;;2.73;96.84;95158.38;5056282;28;20553;-80
2023/01/29 06:39:54;;;;;;;18.83;13.80;;;;;;;2.49;98.79;95160.41;5059338;28;20804;-80
2023/01/29 06:42:26;;;;;;;14.07;9.90;;;;;;;2.41;99.77;95159.94;5063305;28;20449;-80
2023/01/29 06:44:53;;;;;;;16.50;11.40;;;;;;;2.23;100.00;95158.25;5062369;28;20804;-79
2023/01/29 06:47:21;;;;;;;12.55;9.68;;;;;;;2.12;100.00;95163.94;5060054;28;20475;-81
2023/01/29 06:49:48;;;;;;;12.90;8.47;;;;;;;2.03;100.00;95166.13;5062452;28;20217;-82
2023/01/29 06:52:15;;;;;;;11.77;8.97;;;;;;;1.91;100.00;95164.09;5061796;28;20469;-80
2023/01/29 06:54:41;;;;;;;20.45;11.52;;;;;;;1.99;100.00;95169.75;5027624;28;20441;-81
2023/01/29 06:57:08;;;;;;;24.35;13.23;;;;;;;1.97;100.00;95167.25;5011353;28;20214;-81
2023/01/29 06:59:35;;;;;;;13.52;10.27;;;;;;;1.81;100.00;95166.28;5060525;28;20629;-80
2023/01/29 07:02:03;;;;;;;13.25;9.13;;;;;;;1.71;100.00;95165.84;5063425;28;20199;-81
2023/01/29 07:04:31;;;;;;;14.02;10.05;;;;;;;1.64;100.00;95167.06;5064140;28;20207;-80
2023/01/29 07:06:59;;;;;;;16.27;12.65;;;;;;;1.65;100.00;95173.91;5023559;28;20202;-81
2023/01/29 07:09:26;;;;;;;14.53;12.20;;;;;;;1.68;100.00;95173.75;5056616;28;20209;-81
2023/01/29 07:11:52;;;;;;;25.85;16.98;;;;;;;1.52;100.00;95171.06;5056809;28;20449;-81
2023/01/29 07:14:19;;;;;;;24.02;14.65;;;;;;;1.42;100.00;95174.94;5057638;28;20691;-81
2023/01/29 07:16:46;;;;;;;23.67;15.10;;;;;;;1.46;100.00;95170.50;5056942;28;20198;-81
2023/01/29 07:19:13;;;;;;;28.30;17.50;;;;;;;1.45;100.00;95174.00;5056594;28;20630;-81
2023/01/29 07:21:41;;;;;;;29.25;18.67;;;;;;;1.43;100.00;95170.59;5056781;28;20209;-80
2023/01/29 07:24:08;;;;;;;17.00;10.45;;;;;;;1.46;100.00;95173.06;5056830;28;20219;-80
2023/01/29 07:26:35;;;;;;;19.10;10.52;;;;;;;1.44;100.00;95180.03;5021910;28;20296;-80
2023/01/29 07:29:04;;;;;;;15.52;10.05;;;;;;;1.48;100.00;95190.19;5021190;28;20211;-80
2023/01/29 07:31:31;;;;;;;20.25;12.05;;;;;;;1.55;100.00;95180.41;5056695;28;20202;-80
2023/01/29 07:33:57;;;;;;;19.25;12.98;;;;;;;1.55;100.00;95186.41;5021584;28;20258;-80
2023/01/29 07:36:24;;;;;;;25.83;17.05;;;;;;;1.57;100.00;95194.09;5056415;28;20206;-80
2023/01/29 07:38:52;;;;;;;29.95;18.73;;;;;;;1.68;100.00;95194.44;5055839;28;20226;-81
2023/01/29 07:41:19;;;;;;;29.60;16.25;;;;;;;1.61;100.00;95190.47;5037842;28;20198;-83
2023/01/29 07:43:46;;;;;;;17.20;12.85;;;;;;;1.63;100.00;95190.41;5056711;28;20522;-84
2023/01/29 07:46:13;;;;;;;23.27;15.60;;;;;;;1.65;100.00;95202.34;5057233;28;20555;-84
2023/01/29 07:48:40;;;;;;;29.40;15.18;;;;;;;1.63;100.00;95183.47;5057134;28;20445;-81
2023/01/29 07:51:07;;;;;;;19.17;14.95;;;;;;;1.68;100.00;95197.03;5058198;28;20215;-82
2023/01/29 07:53:34;;;;;;;12.00;10.13;;;;;;;1.61;100.00;95190.47;5056413;28;20260;-81
2023/01/29 07:56:03;;;;;;;18.85;14.20;;;;;;;1.60;100.00;95193.97;5055769;28;20207;-87
2023/01/29 07:58:30;;;;;;;19.45;13.38;;;;;;;1.59;100.00;95201.78;5039202;28;20722;-83
2023/01/29 08:00:57;;;;;;;22.60;16.38;;;;;;;1.67;100.00;95200.53;5056602;28;20199;-83
2023/01/29 08:03:23;;;;;;;30.50;18.23;;;;;;;1.72;100.00;95203.75;5056368;28;20194;-83
2023/01/29 08:05:50;;;;;;;21.23;16.10;;;;;;;1.71;100.00;95212.41;5056046;28;20561;-83
2023/01/29 08:08:18;;;;;;;19.27;14.00;;;;;;;1.68;100.00;95212.56;5055922;28;20272;-83
2023/01/29 08:10:44;;;;;;;28.30;17.98;;;;;;;1.77;100.00;95211.31;5055978;28;20214;-86
2023/01/29 08:13:13;;;;;;;23.03;17.90;;;;;;;1.80;100.00;95212.03;5051108;28;20206;-80
2023/01/29 08:15:42;;;;;;;21.08;15.65;;;;;;;2.00;100.00;95213.66;5035960;28;20532;-87
2023/01/29 08:18:09;;;;;;;27.95;19.48;;;;;;;2.03;100.00;95210.13;5039343;28;20222;-81
2023/01/29 08:20:36;;;;;;;30.20;18.63;;;;;;;2.15;100.00;95225.06;5020441;28;20248;-81
2023/01/29 08:23:04;;;;;;;20.80;16.17;;;;;;;2.23;100.00;95219.53;5057548;28;20194;-80
2023/01/29 08:25:32;;;;;;;23.27;16.47;;;;;;;2.26;100.00;95222.81;5045634;28;20610;-80
2023/01/29 08:28:00;;;;;;;20.67;15.82;;;;;;;2.28;100.00;95217.56;5037611;28;20461;-78
2023/01/29 08:30:29;;;;;;;14.77;12.63;;;;;;;2.28;100.00;95223.56;5052296;28;20257;-78
2023/01/29 08:32:56;;;;;;;19.85;12.88;;;;;;;2.33;100.00;95226.81;5034390;28;20446;-79
2023/01/29 08:35:23;;;;;;;16.63;11.87;;;;;;;2.29;100.00;95224.41;5033611;28;20211;-80
2023/01/29 08:37:54;;;;;;;19.25;12.65;;;;;;;2.18;100.00;95232.69;5044021;28;20507;-80
2023/01/29 08:40:21;;;;;;;18.90;15.20;;;;;;;2.11;100.00;95231.31;5039911;28;20682;-79
2023/01/29 08:42:48;;;;;;;27.20;20.20;;;;;;;2.17;100.00;95233.59;5054047;28;20441;-80
2023/01/29 08:45:15;;;;;;;27.53;15.80;;;;;;;2.15;100.00;95232.84;5042308;28;20201;-79
2023/01/29 08:47:47;;;;;;;19.00;13.77;;;;;;;2.74;100.00;95227.41;5051674;28;20445;-79
2023/01/29 08:50:14;;;;;;;16.35;13.10;;;;;;;2.53;100.00;95232.78;5041209;28;20523;-79
2023/01/29 08:52:41;;;;;;;15.60;11.07;;;;;;;2.54;100.00;95234.44;5038893;28;20211;-79
2023/01/29 08:55:08;;;;;;;17.92;11.95;;;;;;;2.40;100.00;95242.91;5052035;28;20460;-81
2023/01/29 08:57:35;;;;;;;17.23;13.38;;;;;;;2.37;100.00;95253.41;5033929;28;20253;-81
2023/01/29 09:00:02;;;;;;;20.80;13.47;;;;;;;2.28;100.00;95254.66;5051743;28;20222;-80
2023/01/29 09:02:29;;;;;;;22.10;14.37;;;;;;;2.28;100.00;95253.81;5053560;28;20540;-80
2023/01/29 09:04:57;;;;;;;19.50;14.02;;;;;;;2.30;100.00;95259.75;5050269;28;20457;-81
2023/01/29 09:07:24;;;;;;;20.65;15.75;;;;;;;2.27;100.00;95252.97;5047927;28;20223;-82
2023/01/29 09:09:50;;;;;;;23.33;15.53;;;;;;;2.21;100.00;95258.44;5041299;28;20261;-81
2023/01/29 09:12:17;;;;;;;28.03;16.00;;;;;;;2.16;100.00;95253.47;5043148;28;20442;-80
2023/01/29 09:14:44;;;;;;;17.92;13.82;;;;;;;2.10;100.00;95253.78;5038175;28;20469;-82
2023/01/29 09:17:11;;;;;;;26.15;16.85;;;;;;;2.06;100.00;95251.41;5046426;28;20199;-79
2023/01/29 09:19:38;;;;;;;29.60;17.80;;;;;;;2.05;100.00;95252.31;5041778;28;20223;-80
2023/01/29 09:22:06;;;;;;;22.80;13.60;;;;;;;2.06;100.00;95251.41;5041549;28;20199;-80
2023/01/29 09:24:33;;;;;;;38.00;21.10;;;;;;;2.06;100.00;95248.81;5042378;28;20716;-80
2023/01/29 09:27:00;;;;;;;28.07;16.90;;;;;;;2.03;100.00;95247.19;5052654;28;20472;-80
2023/01/29 09:29:27;;;;;;;16.10;12.65;;;;;;;1.89;100.00;95243.56;5043568;28;20438;-81
2023/01/29 09:31:54;;;;;;;18.67;13.00;;;;;;;1.88;100.00;95252.22;5033186;28;20207;-80
2023/01/29 09:34:21;;;;;;;22.05;15.90;;;;;;;1.88;100.00;95234.09;5040356;28;20191;-79
2023/01/29 09:36:47;;;;;;;17.73;13.77;;;;;;;1.81;100.00;95244.75;5052458;28;20203;-79
2023/01/29 09:39:15;;;;;;;27.08;19.38;;;;;;;1.86;100.00;95247.97;5013782;28;20528;-81
2023/01/29 09:41:51;;;;;;;27.10;17.52;;;;;;;1.88;100.00;95234.94;5034054;28;20225;-81
2023/01/29 09:44:24;;;;;;;22.58;15.90;;;;;;;1.82;100.00;95241.25;5051672;28;20518;-81
2023/01/29 09:46:53;;;;;;;20.55;14.80;;;;;;;1.82;100.00;95240.41;5041330;28;20302;-80
2023/01/29 09:49:26;;;;;;;20.27;14.70;;;;;;;1.79;100.00;95235.38;4997778;28;20194;-80
2023/01/29 09:51:58;;;;;;;17.23;12.05;;;;;;;1.75;100.00;95233.84;5036264;28;20223;-82
2023/01/29 09:54:32;;;;;;;16.85;14.60;;;;;;;1.88;100.00;95239.28;5035458;28;20631;-81
2023/01/29 09:57:00;;;;;;;22.38;15.18;;;;;;;1.91;100.00;95223.63;5033463;28;20205;-82
2023/01/29 09:59:31;;;;;;;19.52;13.25;;;;;;;1.96;100.00;95227.66;5033210;28;20221;-82
2023/01/29 10:02:09;;;;;;;20.17;12.95;;;;;;;1.94;100.00;95223.47;5032359;28;20199;-81
2023/01/29 10:04:59;;;;;;;16.00;11.70;;;;;;;1.79;100.00;95225.03;5035406;28;20206;-81
2023/01/29 10:07:54;;;;;;;16.30;11.52;;;;;;;1.77;100.00;95230.28;5032445;28;20200;-80
2023/01/29 10:10:43;;;;;;;17.20;11.70;;;;;;;1.84;100.00;95212.72;4921283;29;20293;-81
2023/01/29 10:13:18;;;;;;;22.38;13.02;;;;;;;1.88;100.00;95222.00;4952526;29;20212;-83
2023/01/29 10:16:04;;;;;;;22.10;14.02;;;;;;;1.87;100.00;95217.75;4953093;29;20276;-84
2023/01/29 10:18:59;;;;;;;26.33;15.52;;;;;;;1.91;100.00;95221.88;4966139;28;20280;-81
2023/01/29 10:21:45;;;;;;;21.93;14.50;;;;;;;1.85;100.00;95212.66;4952554;28;20658;-81
2023/01/29 10:24:23;;;;;;;17.95;12.88;;;;;;;1.79;100.00;95212.94;4952301;29;20462;-81
2023/01/29 10:26:52;;;;;;;16.10;12.48;;;;;;;1.68;100.00;95201.38;4951819;28;20213;-81
2023/01/29 10:29:21;;;;;;;19.98;14.05;;;;;;;1.64;100.00;95208.44;4972066;28;20209;-86
2023/01/29 10:31:53;;;;;;;40.00;23.15;;;;;;;1.71;100.00;95211.56;4969788;28;20206;-82
2023/01/29 10:34:28;;;;;;;24.75;15.25;;;;;;;1.79;100.00;95210.34;4961790;28;20213;-81
2023/01/29 10:36:55;;;;;;;14.10;11.50;;;;;;;1.81;100.00;95200.75;4951715;28;20300;-82
2023/01/29 10:39:24;;;;;;;23.17;14.43;;;;;;;1.80;100.00;95199.09;4952739;28;20324;-80
2023/01/29 10:42:04;;;;;;;23.52;13.57;;;;;;;1.82;100.00;95196.44;4970694;28;20205;-82
2023/01/29 10:44:42;;;;;;;18.25;12.30;;;;;;;1.73;100.00;95202.84;4970910;28;20671;-82
2023/01/29 10:47:32;;;;;;;25.10;15.80;;;;;;;1.77;100.00;95194.06;4946829;28;20673;-82
2023/01/29 10:50:16;;;;;;;23.67;16.13;;;;;;;1.80;100.00;95190.50;5049007;28;20204;-82
2023/01/29 10:52:56;;;;;;;26.95;16.80;;;;;;;1.94;100.00;95187.25;5041249;28;20676;-82
2023/01/29 10:55:37;;;;;;;23.15;14.75;;;;;;;1.96;100.00;95195.78;5046572;28;20290;-82
2023/01/29 10:58:14;;;;;;;24.88;16.88;;;;;;;1.89;100.00;95184.88;5019565;28;20195;-80
2023/01/29 11:00:42;;;;;;;24.92;14.93;;;;;;;1.86;100.00;95185.88;5054991;28;20203;-81
2023/01/29 11:03:16;;;;;;;25.30;15.68;;;;;;;1.76;100.00;95182.03;5036234;28;20207;-80
2023/01/29 11:05:50;;;;;;;29.23;17.83;;;;;;;1.81;100.00;95187.00;5044647;28;20286;-80
2023/01/29 11:08:22;;;;;;;25.20;17.97;;;;;;;1.79;100.00;95187.06;5042698;28;20252;-80
2023/01/29 11:10:58;;;;;;;23.92;15.60;;;;;;;1.73;100.00;95170.97;5056310;28;20835;-80
2023/01/29 11:13:32;;;;;;;25.63;17.58;;;;;;;1.79;100.00;95175.88;5057007;28;20226;-80
2023/01/29 11:15:59;;;;;;;31.90;18.40;;;;;;;1.75;100.00;95177.78;5043474;28;20211;-79
2023/01/29 11:18:26;;;;;;;31.58;18.25;;;;;;;1.78;100.00;95172.44;5036570;28;20215;-80
2023/01/29 11:21:02;;;;;;;27.67;15.70;;;;;;;1.81;100.00;95172.31;5049392;28;20609;-80
2023/01/29 11:23:31;;;;;;;24.70;14.50;;;;;;;1.79;100.00;95173.28;5056258;28;20495;-80
2023/01/29 11:25:59;;;;;;;27.02;13.00;;;;;;;1.75;100.00;95170.00;5055871;28;20628;-81
2023/01/29 11:28:38;;;;;;;19.83;13.38;;;;;;;1.79;100.00;95168.13;5046975;28;20203;-81
2023/01/29 11:31:17;;;;;;;26.13;15.00;;;;;;;1.83;100.00;95164.47;5033069;28;20266;-81
2023/01/29 11:33:45;;;;;;;26.20;16.90;;;;;;;1.95;100.00;95169.06;5035871;28;20214;-80
2023/01/29 11:36:21;;;;;;;31.38;16.75;;;;;;;2.03;100.00;95166.13;5019987;28;20586;-81
2023/01/29 11:39:11;;;;;;;29.80;18.80;;;;;;;2.08;100.00;95157.25;5054863;28;20226;-81
2023/01/29 11:41:44;;;;;;;33.28;17.45;;;;;;;2.14;100.00;95150.94;5054493;28;20445;-81
2023/01/29 11:44:20;;;;;;;31.95;17.35;;;;;;;2.14;100.00;95144.00;5053626;28;20662;-80
2023/01/29 11:46:48;;;;;;;31.43;19.40;;;;;;;2.11;100.00;95145.91;5054548;28;20210;-81
2023/01/29 11:49:25;;;;;;;49.42;30.27;;;;;;;2.15;100.00;95137.06;5047207;28;20451;-81
2023/01/29 11:51:55;;;;;;;32.83;20.10;;;;;;;2.20;100.00;95137.69;5046366;28;20202;-80
2023/01/29 11:54:29;;;;;;;30.73;19.50;;;;;;;2.25;100.00;95140.88;5041300;28;20824;-79
2023/01/29 11:56:56;;;;;;;25.23;16.80;;;;;;;2.24;100.00;95136.63;5045316;28;20483;-80
2023/01/29 11:59:35;;;;;;;34.13;20.43;;;;;;;2.34;100.00;95134.44;5051379;28;20484;-80
2023/01/29 12:02:20;;;;;;;26.67;17.37;;;;;;;2.47;99.95;95136.34;5001882;28;20515;-80
2023/01/29 12:04:48;;;;;;;38.00;19.50;;;;;;;2.57;99.90;95141.91;5035214;28;20450;-80
2023/01/29 12:07:17;;;;;;;27.97;17.10;;;;;;;2.58;99.69;95137.56;5034864;28;20515;-80
2023/01/29 12:09:51;;;;;;;27.73;16.93;;;;;;;2.66;99.64;95136.28;5034610;28;20454;-80
2023/01/29 12:12:28;;;;;;;26.80;17.20;;;;;;;2.73;100.00;95140.22;5034049;28;20874;-80